EW0435 Weather Reports


Display with metric or nautical units.
time (UTC)temp
F
wind
direction
speed
MPH
gust
MPH
rain 1hr
in
rain 24hr
in
rain mn
in
humidity
%
barometer
mb
20240721093003 72 231 0.0 0.0 0.00 0.00 0.00 37 1023.6
20240721092504 74 232 0.0 0.0 0.00 0.00 0.00 34 1023.6
20240721092004 76 232 0.0 0.0 0.00 0.00 0.00 33 1023.6
20240721091504 75 232 0.0 0.0 0.00 0.00 0.00 34 1023.6
20240721090504 74 232 0.0 0.0 0.00 0.00 0.00 36 1023.6
20240721085504 73 232 0.0 0.0 0.00 0.00 0.00 37 1023.6
20240721084504 72 224 0.0 0.0 0.00 0.00 0.00 38 1023.7
20240721084004 72 224 0.0 0.0 0.00 0.00 0.00 38 1023.7
20240721083503 73 224 0.0 0.0 0.00 0.00 0.00 37 1023.7
20240721082503 77 263 0.0 0.0 0.00 0.00 0.00 32 1023.7
20240721082004 77 264 0.0 0.0 0.00 0.00 0.00 33 1023.7
20240721081504 77 265 0.0 0.0 0.00 0.00 0.00 32 1023.6
20240721081004 77 265 0.0 12.0 0.00 0.00 0.00 32 1023.6
20240721080504 77 265 0.0 0.0 0.00 0.00 0.00 31 1023.7
20240721080004 77 265 0.0 0.0 0.00 0.00 0.00 31 1023.8
20240721075503 77 265 0.0 0.0 0.00 0.00 0.00 31 1023.9
20240721075004 77 265 0.0 0.0 0.00 0.00 0.00 30 1023.9
20240721074504 77 265 0.0 0.0 0.00 0.00 0.00 31 1023.8
20240721074004 77 265 0.0 0.0 0.00 0.00 0.00 31 1023.9
20240721073504 77 265 0.0 0.0 0.00 0.00 0.00 31 1023.9
20240721073004 76 265 0.0 0.0 0.00 0.00 0.00 31 1023.9
20240721072504 76 265 0.0 0.0 0.00 0.00 0.00 31 1023.9
20240721072004 76 265 0.0 0.0 0.00 0.00 0.00 31 1024.0
20240721071504 76 265 0.0 0.0 0.00 0.00 0.00 31 1024.0
20240721070504 76 265 0.0 0.0 0.00 0.00 0.00 30 1024.1
20240721070004 76 265 0.0 0.0 0.00 0.00 0.00 30 1024.1
20240721065504 76 265 0.0 0.0 0.00 0.00 0.00 30 1024.2
20240721065004 76 265 0.0 0.0 0.00 0.00 0.00 30 1024.1
20240721064504 76 265 0.0 0.0 0.00 0.00 0.00 30 1024.1
20240721064004 76 265 0.0 0.0 0.00 0.00 0.00 30 1024.1
20240721063503 76 265 0.0 0.0 0.00 0.00 0.00 30 1024.1
20240721062503 77 265 0.0 0.0 0.00 0.00 0.00 29 1024.1
20240721062003 77 265 0.0 0.0 0.00 0.00 0.00 29 1024.1
20240721061503 77 265 0.0 0.0 0.00 0.00 0.00 29 1024.2
20240721060503 78 265 0.0 0.0 0.00 0.00 0.00 28 1024.2
20240721060004 78 265 0.0 0.0 0.00 0.00 0.00 28 1024.2
20240721054504 78 265 0.0 0.0 0.00 0.00 0.00 28 1024.3
20240721054004 78 265 0.0 0.0 0.00 0.00 0.00 28 1024.3
20240721053504 78 265 0.0 0.0 0.00 0.00 0.00 27 1024.3
20240721053004 78 265 0.0 0.0 0.00 0.00 0.00 28 1024.2
20240721052503 78 269 0.0 0.0 0.00 0.00 0.00 29 1024.2
20240721051503 79 339 0.0 0.0 0.00 0.00 0.00 27 1024.3
20240721051003 79 339 0.0 0.0 0.00 0.00 0.00 27 1024.3
20240721050503 79 344 0.0 0.0 0.00 0.00 0.00 27 1024.3
20240721050004 79 344 0.0 0.0 0.00 0.00 0.00 27 1024.3
20240721045503 79 344 0.0 0.0 0.00 0.00 0.00 28 1024.4
20240721045004 79 344 0.0 0.0 0.00 0.00 0.00 28 1024.3
20240721044004 79 344 0.0 0.0 0.00 0.00 0.00 28 1024.4
20240721043505 79 344 0.0 0.0 0.00 0.00 0.00 29 1024.5
20240721043003 79 345 0.0 0.0 0.00 0.00 0.00 28 1024.5
20240721042004 80 345 0.0 0.0 0.00 0.00 0.00 27 1024.6
20240721041504 81 345 0.0 0.0 0.00 0.00 0.00 27 1024.5
20240721041004 81 346 0.0 0.0 0.00 0.00 0.00 26 1024.5
20240721040504 82 351 0.0 0.0 0.00 0.00 0.00 26 1024.6
20240721040004 83 351 0.0 0.0 0.00 0.00 0.00 25 1024.5
20240721035504 83 351 0.0 0.0 0.00 0.00 0.00 25 1024.5
20240721035004 83 351 0.0 0.0 0.00 0.00 0.00 25 1024.5
20240721034504 84 351 0.0 0.0 0.00 0.00 0.00 25 1024.5
20240721034004 84 351 0.0 0.0 0.00 0.00 0.00 24 1024.5
20240721033004 86 351 0.0 0.0 0.00 0.00 0.00 23 1024.4
20240721032504 87 351 0.0 0.0 0.00 0.00 0.00 23 1024.4
20240721031503 90 351 0.0 0.0 0.00 0.00 0.00 21 1024.4
20240721031004 91 351 0.0 0.0 0.00 0.00 0.00 21 1024.4
20240721030504 91 351 0.0 0.0 0.00 0.00 0.00 21 1024.4
20240721025504 91 351 0.0 0.0 0.00 0.00 0.00 22 1024.3
20240721024503 92 351 0.0 0.0 0.00 0.00 0.00 22 1024.5
20240721023503 92 351 0.0 0.0 0.00 0.00 0.00 22 1024.4
20240721023003 92 351 0.0 0.0 0.00 0.00 0.00 20 1024.4
20240721021503 93 354 0.0 0.0 0.00 0.00 0.00 19 1024.5
20240721021003 94 351 0.0 0.0 0.00 0.00 0.00 18 1024.5
20240721020004 94 355 0.0 0.0 0.00 0.00 0.00 18 1024.5
20240721015504 94 355 0.0 0.0 0.00 0.00 0.00 18 1024.5
20240721015003 94 350 0.0 0.0 0.00 0.00 0.00 17 1024.4
20240721014503 94 354 0.0 0.0 0.00 0.00 0.00 17 1024.5
20240721013505 94 343 0.0 0.0 0.00 0.00 0.00 17 1024.5
20240721013003 93 22 0.0 0.0 0.00 0.00 0.00 19 1024.4
20240721012504 94 27 0.0 1.0 0.00 0.00 0.00 18 1024.5
20240721011504 95 9 0.0 0.0 0.00 0.00 0.00 17 1024.5
20240721011004 94 338 0.0 0.0 0.00 0.00 0.00 18 1024.6
20240721010503 95 356 0.0 0.0 0.00 0.00 0.00 17 1024.6
20240721010004 95 32 0.0 0.0 0.00 0.00 0.00 17 1024.6
20240721005503 95 8 0.0 0.0 0.00 0.00 0.00 18 1024.6
20240721005004 95 316 0.0 1.0 0.00 0.00 0.00 17 1024.6
20240721003503 95 7 0.0 1.0 0.00 0.00 0.00 17 1024.5
20240721003004 96 341 0.0 1.0 0.00 0.00 0.00 18 1024.6
20240721002504 96 336 0.0 5.0 0.00 0.00 0.00 17 1024.6
20240721002003 95 334 0.0 1.0 0.00 0.00 0.00 18 1024.7
20240721001503 94 331 0.0 3.0 0.00 0.00 0.00 18 1024.7
20240721001004 94 16 0.0 3.0 0.00 0.00 0.00 18 1024.7
20240720235503 94 46 0.0 0.0 0.00 0.00 0.00 19 1024.9
20240720234004 95 352 0.0 8.0 0.00 0.00 0.00 18 1025.0
20240720233504 94 354 1.0 8.0 0.00 0.00 0.00 18 1025.0
20240720233004 93 6 0.0 1.0 0.00 0.00 0.00 19 1025.1
20240720232003 94 54 0.0 8.0 0.00 0.00 0.00 19 1025.1
20240720231503 94 355 1.0 8.0 0.00 0.00 0.00 20 1025.2
20240720231004 94 349 1.0 7.0 0.00 0.00 0.00 19 1025.3
20240720230504 94 344 0.0 7.0 0.00 0.00 0.00 19 1025.3
20240720230004 94 328 1.0 8.0 0.00 0.00 0.00 19 1025.4
20240720225504 94 38 0.0 2.0 0.00 0.00 0.00 20 1025.4
20240720225004 95 17 0.0 2.0 0.00 0.00 0.00 19 1025.4
20240720224504 96 29 0.0 1.0 0.00 0.00 0.00 19 1025.4
20240720224003 95 23 0.0 1.0 0.00 0.00 0.00 19 1025.4
20240720223503 94 17 0.0 1.0 0.00 0.00 0.00 19 1025.4
20240720223004 94 358 0.0 3.0 0.00 0.00 0.00 19 1025.5
20240720222503 95 52 0.0 1.0 0.00 0.00 0.00 20 1025.5
20240720222004 95 3 0.0 0.0 0.00 0.00 0.00 19 1025.4
20240720221504 95 1 0.0 2.0 0.00 0.00 0.00 19 1025.5
20240720220504 95 5 0.0 1.0 0.00 0.00 0.00 20 1025.6
20240720215004 94 50 0.0 2.0 0.00 0.00 0.00 20 1025.6
20240720214503 95 335 0.0 2.0 0.00 0.00 0.00 19 1025.7
20240720214004 95 355 0.0 1.0 0.00 0.00 0.00 19 1025.8
20240720213503 94 11 0.0 5.0 0.00 0.00 0.00 20 1025.9
20240720213004 94 19 0.0 1.0 0.00 0.00 0.00 19 1025.9
20240720212503 94 339 0.0 0.0 0.00 0.00 0.00 20 1025.8
20240720212004 95 22 0.0 1.0 0.00 0.00 0.00 19 1025.9
20240720211504 94 355 0.0 0.0 0.00 0.00 0.00 20 1025.8
20240720211003 94 0 0.0 0.0 0.00 0.00 0.00 20 1026.0
20240720210503 93 30 0.0 1.0 0.00 0.00 0.00 21 1026.0
20240720205504 92 49 0.0 1.0 0.00 0.00 0.00 23 1026.0
20240720205004 91 14 0.0 0.0 0.00 0.00 0.00 22 1026.1
20240720204504 89 254 0.0 2.0 0.00 0.00 0.00 23 1026.1
20240720204004 90 64 0.0 1.0 0.00 0.00 0.00 24 1026.2
20240720202503 92 83 0.0 0.0 0.00 0.00 0.00 21 1026.3
20240720201503 90 34 0.0 5.0 0.00 0.00 0.00 24 1026.3
20240720201004 91 66 0.0 0.0 0.00 0.00 0.00 22 1026.4
20240720200004 91 330 0.0 1.0 0.00 0.00 0.00 22 1026.5
20240720195504 91 45 0.0 0.0 0.00 0.00 0.00 23 1026.5
20240720195004 91 25 0.0 0.0 0.00 0.00 0.00 23 1026.6
20240720194504 91 359 0.0 1.0 0.00 0.00 0.00 22 1026.6
20240720193504 91 51 0.0 0.0 0.00 0.00 0.00 23 1026.7
20240720193004 91 22 0.0 1.0 0.00 0.00 0.00 22 1026.7
20240720192503 91 29 0.0 0.0 0.00 0.00 0.00 23 1026.7
20240720192004 90 3 0.0 0.0 0.00 0.00 0.00 24 1026.8
20240720191504 89 34 0.0 0.0 0.00 0.00 0.00 23 1026.7
20240720191004 89 337 0.0 1.0 0.00 0.00 0.00 22 1026.8
20240720190503 90 38 0.0 0.0 0.00 0.00 0.00 23 1026.8
20240720190004 90 20 0.0 0.0 0.00 0.00 0.00 23 1026.8
20240720185504 89 355 0.0 0.0 0.00 0.00 0.00 22 1026.9
20240720185004 89 12 0.0 0.0 0.00 0.00 0.00 22 1026.9
20240720184503 89 12 0.0 1.0 0.00 0.00 0.00 23 1026.9
20240720184003 88 26 0.0 0.0 0.00 0.00 0.00 23 1026.9
20240720183504 88 348 0.0 0.0 0.00 0.00 0.00 23 1026.9
20240720183004 87 24 0.0 0.0 0.00 0.00 0.00 24 1027.0
20240720182503 87 33 0.0 0.0 0.00 0.00 0.00 23 1027.0
20240720182003 87 45 0.0 0.0 0.00 0.00 0.00 26 1027.0
20240720181004 86 1 0.0 0.0 0.00 0.00 0.00 24 1027.0
20240720180504 86 74 0.0 0.0 0.00 0.00 0.00 23 1027.0
20240720180004 87 5 0.0 0.0 0.00 0.00 0.00 23 1027.1
20240720175503 86 5 0.0 0.0 0.00 0.00 0.00 23 1027.0
20240720175003 85 29 0.0 0.0 0.00 0.00 0.00 24 1027.1
20240720174504 85 324 0.0 1.0 0.00 0.00 0.00 24 1027.1
20240720173503 85 24 0.0 1.0 0.00 0.00 0.00 24 1027.1
20240720173004 84 25 0.0 1.0 0.00 0.00 0.00 23 1027.1
20240720172503 84 33 0.0 1.0 0.00 0.00 0.00 24 1027.1
20240720172004 84 26 0.0 0.0 0.00 0.00 0.00 24 1027.2
20240720171503 83 54 0.0 1.0 0.00 0.00 0.00 25 1027.2
20240720171004 83 40 0.0 1.0 0.00 0.00 0.00 24 1027.2
20240720170504 83 14 0.0 1.0 0.00 0.00 0.00 25 1027.2
20240720170004 82 299 0.0 0.0 0.00 0.00 0.00 25 1027.1
20240720165503 82 340 0.0 0.0 0.00 0.00 0.00 25 1027.1
20240720165004 82 311 0.0 0.0 0.00 0.00 0.00 25 1027.1
20240720164504 81 305 0.0 1.0 0.00 0.00 0.00 26 1027.2
20240720164004 81 313 0.0 0.0 0.00 0.00 0.00 26 1027.2
20240720163503 80 320 0.0 2.0 0.00 0.00 0.00 26 1027.2
20240720163004 80 352 0.0 1.0 0.00 0.00 0.00 25 1027.1
20240720162504 80 322 0.0 0.0 0.00 0.00 0.00 26 1027.2
20240720161503 80 332 0.0 1.0 0.00 0.00 0.00 26 1027.2
20240720161004 80 313 0.0 0.0 0.00 0.00 0.00 26 1027.2
20240720160503 80 354 0.0 0.0 0.00 0.00 0.00 27 1027.2
20240720160004 79 23 0.0 0.0 0.00 0.00 0.00 27 1027.2
20240720155503 79 324 0.0 0.0 0.00 0.00 0.00 27 1027.2
20240720155004 78 321 0.0 0.0 0.00 0.00 0.00 28 1027.2
20240720154503 78 325 0.0 0.0 0.00 0.00 0.00 29 1027.3
20240720154004 77 334 0.0 0.0 0.00 0.00 0.00 29 1027.2
20240720153504 77 306 0.0 1.0 0.00 0.00 0.00 28 1027.2
20240720153004 77 320 0.0 1.0 0.00 0.00 0.00 29 1027.2
20240720152504 77 323 0.0 0.0 0.00 0.00 0.00 30 1027.2
20240720152003 76 319 0.0 0.0 0.00 0.00 0.00 29 1027.2
20240720151003 75 333 0.0 1.0 0.00 0.00 0.00 31 1027.2
20240720150503 74 311 0.0 0.0 0.00 0.00 0.00 32 1027.1
20240720150004 74 323 0.0 1.0 0.00 0.00 0.00 33 1027.1
20240720145504 73 316 0.0 0.0 0.00 0.00 0.00 35 1027.1
20240720145004 73 296 0.0 0.0 0.00 0.00 0.00 36 1027.1
20240720144504 72 295 0.0 0.0 0.00 0.00 0.00 37 1027.1
20240720144004 72 302 0.0 0.0 0.00 0.00 0.00 37 1027.1
20240720143503 71 306 0.0 0.0 0.00 0.00 0.00 36 1027.1
20240720143004 71 304 0.0 0.0 0.00 0.00 0.00 36 1027.1
20240720142504 71 300 0.0 0.0 0.00 0.00 0.00 37 1027.1
20240720141504 70 306 0.0 0.0 0.00 0.00 0.00 38 1027.0
20240720141004 69 296 0.0 0.0 0.00 0.00 0.00 38 1027.0
20240720140504 69 303 0.0 0.0 0.00 0.00 0.00 38 1026.9
20240720140004 68 298 0.0 0.0 0.00 0.00 0.00 39 1026.9
20240720135004 67 303 0.0 0.0 0.00 0.00 0.00 40 1026.9
20240720134504 67 289 0.0 0.0 0.00 0.00 0.00 39 1026.8
20240720134003 67 296 0.0 0.0 0.00 0.00 0.00 38 1026.9
20240720133503 67 295 0.0 0.0 0.00 0.00 0.00 39 1026.8
20240720133004 66 291 0.0 0.0 0.00 0.00 0.00 38 1026.7
20240720132504 66 300 0.0 0.0 0.00 0.00 0.00 39 1026.7
20240720132003 66 293 0.0 0.0 0.00 0.00 0.00 39 1026.8
20240720131004 66 294 0.0 0.0 0.00 0.00 0.00 38 1026.7
20240720130504 66 294 0.0 0.0 0.00 0.00 0.00 38 1026.7
20240720130004 66 297 0.0 1.0 0.00 0.00 0.00 38 1026.8
20240720125503 66 288 0.0 1.0 0.00 0.00 0.00 38 1026.8
20240720124504 65 295 0.0 0.0 0.00 0.00 0.00 39 1026.8
20240720124003 65 295 0.0 0.0 0.00 0.00 0.00 39 1026.7
20240720123004 65 297 0.0 0.0 0.00 0.00 0.00 38 1026.8
20240720122504 66 293 0.0 0.0 0.00 0.00 0.00 37 1026.8
20240720122003 66 299 0.0 0.0 0.00 0.00 0.00 37 1026.8
20240720121503 66 296 0.0 0.0 0.00 0.00 0.00 37 1026.8
20240720121004 66 295 0.0 0.0 0.00 0.00 0.00 37 1026.8
20240720120003 65 294 0.0 0.0 0.00 0.00 0.00 39 1026.8
20240720115504 65 294 0.0 0.0 0.00 0.00 0.00 39 1026.7
20240720115004 65 296 0.0 0.0 0.00 0.00 0.00 39 1026.7
20240720114503 65 297 0.0 0.0 0.00 0.00 0.00 38 1026.7
20240720113504 65 292 0.0 0.0 0.00 0.00 0.00 39 1026.6
20240720113004 65 294 0.0 0.0 0.00 0.00 0.00 39 1026.7
20240720112504 66 298 0.0 0.0 0.00 0.00 0.00 38 1026.6
20240720112004 66 295 0.0 0.0 0.00 0.00 0.00 37 1026.6
20240720111504 66 292 0.0 1.0 0.00 0.00 0.00 37 1026.5
20240720111004 67 299 0.0 1.0 0.00 0.00 0.00 37 1026.5
20240720110504 67 295 0.0 1.0 0.00 0.00 0.00 37 1026.5
20240720110004 67 292 0.0 1.0 0.00 0.00 0.00 37 1026.4
20240720105504 67 294 0.0 0.0 0.00 0.00 0.00 36 1026.4
20240720104504 67 301 0.0 0.0 0.00 0.00 0.00 36 1026.4
20240720104004 68 295 0.0 1.0 0.00 0.00 0.00 35 1026.4
20240720103503 68 295 0.0 0.0 0.00 0.00 0.00 35 1026.4
20240720103004 68 297 0.0 0.0 0.00 0.00 0.00 34 1026.3
20240720102503 68 301 0.0 0.0 0.00 0.00 0.00 35 1026.4
20240720102004 68 297 0.0 1.0 0.00 0.00 0.00 35 1026.4
20240720101503 68 296 0.0 0.0 0.00 0.00 0.00 35 1026.4
20240720100504 68 292 0.0 0.0 0.00 0.00 0.00 35 1026.3
20240720100004 68 294 0.0 0.0 0.00 0.00 0.00 35 1026.3
20240720095503 68 293 0.0 0.0 0.00 0.00 0.00 35 1026.3
20240720095004 69 292 0.0 3.0 0.00 0.00 0.00 34 1026.3
20240720094503 69 293 0.0 3.0 0.00 0.00 0.00 34 1026.2
20240720094004 69 298 0.0 1.0 0.00 0.00 0.00 34 1026.3
20240720093504 69 299 0.0 2.0 0.00 0.00 0.00 34 1026.3